createdAt,value
2019-05-13T00:01:46.661Z,103314.66
2019-05-13T00:04:16.301Z,103322.92
2019-05-13T00:06:54.050Z,103316.52
2019-05-13T00:09:17.607Z,103320.70
2019-05-13T00:11:47.198Z,103312.20
2019-05-13T00:14:16.774Z,103327.31
2019-05-13T00:16:46.491Z,103323.69
2019-05-13T00:19:16.249Z,103317.11
2019-05-13T00:21:45.846Z,103320.60
2019-05-13T00:24:18.387Z,103317.79
2019-05-13T00:26:47.924Z,103315.95
2019-05-13T00:29:17.498Z,103313.81
2019-05-13T00:31:47.223Z,103315.17
2019-05-13T00:34:16.836Z,103312.47
2019-05-13T00:36:46.439Z,103319.80
2019-05-13T00:39:19.121Z,103321.64
2019-05-13T00:41:49.184Z,103317.08
2019-05-13T00:44:18.854Z,103324.53
2019-05-13T00:46:49.580Z,103322.52
2019-05-13T00:49:19.143Z,103325.89
2019-05-13T00:51:48.721Z,103320.95
2019-05-13T00:54:18.359Z,103325.29
2019-05-13T00:56:47.910Z,103327.17
2019-05-13T00:59:17.448Z,103328.10
2019-05-13T01:01:47.196Z,103326.16
2019-05-13T01:04:17.010Z,103323.27
2019-05-13T01:06:47.233Z,103330.99
2019-05-13T01:09:17.322Z,103329.91
2019-05-13T01:11:46.915Z,103336.80
2019-05-13T01:14:16.918Z,103336.00
2019-05-13T01:16:46.688Z,103333.36
2019-05-13T01:19:16.467Z,103336.98
2019-05-13T01:21:46.107Z,103332.22
2019-05-13T01:24:15.828Z,103332.26
2019-05-13T01:26:45.375Z,103331.14
2019-05-13T01:29:14.980Z,103325.23
2019-05-13T01:31:44.774Z,103333.20
2019-05-13T01:34:14.458Z,103334.12
2019-05-13T01:36:44.771Z,103331.75
2019-05-13T01:39:14.761Z,103328.23
2019-05-13T01:41:45.853Z,103325.75
2019-05-13T01:44:15.443Z,103324.70
2019-05-13T01:46:45.097Z,103325.32
2019-05-13T01:49:18.697Z,103318.74
2019-05-13T01:51:48.612Z,103324.45
2019-05-13T01:54:20.224Z,103322.53
2019-05-13T01:56:50.002Z,103322.71
2019-05-13T01:59:19.709Z,103324.48
2019-05-13T02:01:49.774Z,103331.19
2019-05-13T02:04:19.355Z,103321.69
2019-05-13T02:06:48.890Z,103322.31
2019-05-13T02:09:19.268Z,103322.30
2019-05-13T02:11:49.046Z,103331.15
2019-05-13T02:14:18.636Z,103335.20
2019-05-13T02:16:49.439Z,103331.63
2019-05-13T02:19:19.564Z,103330.19
2019-05-13T02:21:49.229Z,103330.97
2019-05-13T02:24:20.461Z,103331.30
2019-05-13T02:26:50.124Z,103329.97
2019-05-13T02:29:19.962Z,103334.87
2019-05-13T02:31:53.119Z,103334.23
2019-05-13T02:34:23.228Z,103341.39
2019-05-13T02:36:52.783Z,103336.16
2019-05-13T02:39:23.352Z,103342.91
2019-05-13T02:41:53.351Z,103338.65
2019-05-13T02:44:23.116Z,103349.16
2019-05-13T02:46:52.773Z,103353.38
2019-05-13T02:49:23.378Z,103356.03
2019-05-13T02:51:54.619Z,103354.16
2019-05-13T02:54:26.675Z,103356.56
2019-05-13T02:56:56.445Z,103350.16
2019-05-13T02:59:25.956Z,103367.45
2019-05-13T03:01:55.738Z,103357.60
2019-05-13T03:04:25.243Z,103352.50
2019-05-13T03:06:55.029Z,103362.23
2019-05-13T03:09:24.645Z,103354.77
2019-05-13T03:11:54.296Z,103361.75
2019-05-13T03:14:24.229Z,103363.52
2019-05-13T03:16:55.806Z,103360.56
2019-05-13T03:19:25.450Z,103363.17
2019-05-13T03:21:55.028Z,103360.64
2019-05-13T03:24:24.757Z,103370.23
2019-05-13T03:26:56.301Z,103366.19
2019-05-13T03:29:25.972Z,103371.16
2019-05-13T03:31:56.819Z,103377.81
2019-05-13T03:34:27.553Z,103383.92
2019-05-13T03:36:58.472Z,103391.75
2019-05-13T03:39:32.992Z,103385.56
2019-05-13T03:42:04.246Z,103381.38
2019-05-13T03:44:34.326Z,103382.23
2019-05-13T03:47:04.897Z,103387.14
2019-05-13T03:49:36.410Z,103390.30
2019-05-13T03:52:06.227Z,103391.03
2019-05-13T03:54:36.612Z,103391.48
2019-05-13T03:57:06.355Z,103389.98
2019-05-13T03:59:36.407Z,103394.16
2019-05-13T04:02:06.092Z,103397.44
2019-05-13T04:04:35.847Z,103396.61
2019-05-13T04:07:24.827Z,103401.14
2019-05-13T04:10:13.927Z,103408.02
2019-05-13T04:12:43.633Z,103408.98
2019-05-13T04:15:13.958Z,103398.56
2019-05-13T04:17:43.569Z,103397.00
2019-05-13T04:20:13.810Z,103399.87
2019-05-13T04:22:43.911Z,103403.02
2019-05-13T04:25:13.857Z,103401.26
2019-05-13T04:27:45.283Z,103405.02
2019-05-13T04:30:15.515Z,103405.09
2019-05-13T04:32:45.433Z,103408.92
2019-05-13T04:35:16.549Z,103410.36
2019-05-13T04:37:46.190Z,103408.53
2019-05-13T04:40:15.872Z,103409.37
2019-05-13T04:42:45.505Z,103415.09
2019-05-13T04:45:16.158Z,103420.91
2019-05-13T04:47:45.737Z,103413.52
2019-05-13T04:50:15.655Z,103424.41
2019-05-13T04:52:45.340Z,103422.56
2019-05-13T04:55:15.091Z,103417.58
2019-05-13T04:57:45.205Z,103415.67
2019-05-13T05:00:17.145Z,103410.63
2019-05-13T05:03:33.040Z,103419.57
2019-05-13T05:06:07.009Z,103420.59
2019-05-13T05:09:03.279Z,103417.70
2019-05-13T05:11:54.028Z,103424.03
2019-05-13T05:14:53.296Z,103413.77
2019-05-13T05:17:53.116Z,103419.30
2019-05-13T05:20:33.064Z,103422.59
2019-05-13T05:23:32.528Z,103420.17
2019-05-13T05:26:16.147Z,103417.85
2019-05-13T05:29:23.722Z,103421.81
2019-05-13T05:32:27.900Z,103415.53
2019-05-13T05:35:22.892Z,103420.64
2019-05-13T05:38:08.687Z,103417.66
2019-05-13T05:40:39.345Z,103412.23
2019-05-13T05:43:11.649Z,103419.39
2019-05-13T05:45:41.601Z,103418.22
2019-05-13T05:48:14.610Z,103417.72
2019-05-13T05:50:46.146Z,103406.07
2019-05-13T05:53:18.618Z,103416.58
2019-05-13T05:55:51.785Z,103411.89
2019-05-13T05:58:23.464Z,103417.78
2019-05-13T06:00:56.380Z,103409.33
2019-05-13T06:03:28.048Z,103413.02
2019-05-13T06:05:57.847Z,103419.91
2019-05-13T06:08:27.796Z,103418.52
2019-05-13T06:10:57.877Z,103416.36
2019-05-13T06:13:27.668Z,103413.70
2019-05-13T06:15:57.402Z,103412.50
2019-05-13T06:18:27.054Z,103417.75
2019-05-13T06:20:56.823Z,103425.69
2019-05-13T06:23:27.053Z,103415.25
2019-05-13T06:25:56.710Z,103424.40
2019-05-13T06:28:27.968Z,103419.27
2019-05-13T06:31:02.463Z,103424.04
2019-05-13T06:33:31.952Z,103420.03
2019-05-13T06:36:04.576Z,103419.33
2019-05-13T06:38:34.308Z,103427.00
2019-05-13T06:41:08.070Z,103431.19
2019-05-13T06:43:35.360Z,103433.47
2019-05-13T06:46:04.969Z,103435.48
2019-05-13T06:48:34.786Z,103436.83
2019-05-13T06:51:04.592Z,103436.92
2019-05-13T06:53:34.208Z,103439.85
2019-05-13T06:56:03.964Z,103439.55
2019-05-13T06:58:33.554Z,103444.16
2019-05-13T07:01:04.272Z,103447.94
2019-05-13T07:03:33.991Z,103452.89
2019-05-13T07:06:04.469Z,103444.91
2019-05-13T07:08:34.065Z,103445.64
2019-05-13T07:11:17.775Z,103453.76
2019-05-13T07:13:35.352Z,103453.08
2019-05-13T07:16:05.032Z,103448.73
2019-05-13T07:18:34.639Z,103451.31
2019-05-13T07:21:04.188Z,103454.19
2019-05-13T07:23:33.887Z,103454.00
2019-05-13T07:26:03.442Z,103445.06
2019-05-13T07:28:33.120Z,103444.68
2019-05-13T07:31:03.187Z,103441.87
2019-05-13T07:33:33.352Z,103444.09
2019-05-13T07:36:03.900Z,103449.69
2019-05-13T07:38:33.643Z,103436.14
2019-05-13T07:41:05.099Z,103438.25
2019-05-13T07:43:34.719Z,103441.48
2019-05-13T07:46:04.634Z,103443.86
2019-05-13T07:48:34.187Z,103435.20
2019-05-13T07:51:04.990Z,103435.17
2019-05-13T07:53:34.826Z,103439.39
2019-05-13T07:56:04.548Z,103436.02
2019-05-13T07:58:37.415Z,103439.91
2019-05-13T08:01:05.543Z,103439.86
2019-05-13T08:03:35.140Z,103442.44
2019-05-13T08:06:04.690Z,103439.34
2019-05-13T08:08:34.302Z,103438.56
2019-05-13T08:11:03.870Z,103441.12
2019-05-13T08:13:33.611Z,103442.59
2019-05-13T08:16:03.439Z,103444.95
2019-05-13T08:18:33.011Z,103438.20
2019-05-13T08:21:02.712Z,103444.36
2019-05-13T08:23:32.630Z,103448.99
2019-05-13T08:26:02.511Z,103453.92
2019-05-13T08:28:32.607Z,103447.13
2019-05-13T08:31:02.520Z,103443.02
2019-05-13T08:33:32.781Z,103442.16
2019-05-13T08:36:02.521Z,103446.77
2019-05-13T08:38:32.278Z,103449.74
2019-05-13T08:41:02.261Z,103442.16
2019-05-13T08:43:32.281Z,103435.69
2019-05-13T08:46:02.921Z,103447.35
2019-05-13T08:48:32.576Z,103435.97
2019-05-13T08:51:03.284Z,103443.73
2019-05-13T08:53:33.185Z,103432.67
2019-05-13T08:56:02.958Z,103437.93
2019-05-13T08:58:32.778Z,103440.81
2019-05-13T09:01:02.615Z,103434.59
2019-05-13T09:03:32.801Z,103439.35
2019-05-13T09:06:03.135Z,103436.67
2019-05-13T09:08:33.192Z,103433.27
2019-05-13T09:11:03.249Z,103432.61
2019-05-13T09:13:34.827Z,103433.78
2019-05-13T09:16:04.664Z,103436.52
2019-05-13T09:18:34.494Z,103440.52
2019-05-13T09:21:04.190Z,103445.56
2019-05-13T09:23:33.800Z,103446.56
2019-05-13T09:26:03.582Z,103440.56
2019-05-13T09:28:33.293Z,103438.19
2019-05-13T09:31:03.183Z,103440.09
2019-05-13T09:33:33.087Z,103435.45
2019-05-13T09:36:02.962Z,103430.42
2019-05-13T09:38:32.894Z,103429.58
2019-05-13T09:41:02.563Z,103438.11
2019-05-13T09:43:32.314Z,103437.71
2019-05-13T09:46:02.595Z,103425.79
2019-05-13T09:48:32.351Z,103432.70
2019-05-13T09:51:02.641Z,103439.09
2019-05-13T09:53:33.563Z,103427.51
2019-05-13T09:56:03.243Z,103434.30
2019-05-13T09:58:33.376Z,103423.45
2019-05-13T10:01:03.232Z,103424.24
2019-05-13T10:03:33.388Z,103418.02
2019-05-13T10:06:03.417Z,103422.37
2019-05-13T10:08:33.099Z,103428.99
2019-05-13T10:11:02.947Z,103424.02
2019-05-13T10:13:37.384Z,103426.55
2019-05-13T10:16:07.081Z,103415.70
2019-05-13T10:18:36.769Z,103423.77
2019-05-13T10:21:06.477Z,103408.14
2019-05-13T10:23:41.809Z,103404.82
2019-05-13T10:26:14.382Z,103418.08
2019-05-13T10:28:45.271Z,103412.09
2019-05-13T10:31:15.191Z,103420.44
2019-05-13T10:33:45.294Z,103420.30
2019-05-13T10:36:14.959Z,103413.83
2019-05-13T10:38:45.030Z,103411.77
2019-05-13T10:41:14.659Z,103407.65
2019-05-13T10:43:44.715Z,103407.47
2019-05-13T10:46:14.983Z,103396.96
2019-05-13T10:48:44.685Z,103408.97
2019-05-13T10:51:14.473Z,103410.64
2019-05-13T10:53:44.249Z,103404.52
2019-05-13T10:56:13.927Z,103399.71
2019-05-13T10:58:44.110Z,103411.73
2019-05-13T11:01:13.864Z,103410.25
2019-05-13T11:03:43.830Z,103414.79
2019-05-13T11:06:13.691Z,103413.17
2019-05-13T11:08:43.691Z,103415.53
2019-05-13T11:11:13.772Z,103411.97
2019-05-13T11:13:55.078Z,103412.53
2019-05-13T11:16:15.820Z,103395.97
2019-05-13T11:18:45.925Z,103396.83
2019-05-13T11:21:17.239Z,103398.69
2019-05-13T11:23:46.933Z,103399.72
2019-05-13T11:26:16.828Z,103407.88
2019-05-13T11:28:46.523Z,103400.41
2019-05-13T11:31:16.267Z,103400.77
2019-05-13T11:33:46.042Z,103396.48
2019-05-13T11:36:18.983Z,103409.08
2019-05-13T11:38:47.035Z,103401.78
2019-05-13T11:41:16.876Z,103400.45
2019-05-13T11:44:08.046Z,103394.92
2019-05-13T11:46:22.479Z,103391.61
2019-05-13T11:48:52.022Z,103385.89
2019-05-13T11:51:24.189Z,103379.33
2019-05-13T11:53:53.417Z,103393.83
2019-05-13T11:56:23.932Z,103388.99
2019-05-13T11:58:53.810Z,103382.78
2019-05-13T12:01:23.537Z,103373.11
2019-05-13T12:03:53.505Z,103368.91
2019-05-13T12:06:23.702Z,103367.22
2019-05-13T12:08:55.324Z,103366.52
2019-05-13T12:11:25.486Z,103366.90
2019-05-13T12:13:55.250Z,103356.54
2019-05-13T12:16:24.911Z,103359.30
2019-05-13T12:18:55.319Z,103358.02
2019-05-13T12:21:25.003Z,103365.62
2019-05-13T12:23:55.248Z,103359.67
2019-05-13T12:26:25.212Z,103351.74
2019-05-13T12:28:54.882Z,103351.41
2019-05-13T12:31:24.647Z,103362.75
2019-05-13T12:33:54.571Z,103362.39
2019-05-13T12:36:24.366Z,103349.04
2019-05-13T12:38:54.686Z,103337.66
2019-05-13T12:41:24.390Z,103341.52
2019-05-13T12:43:54.256Z,103335.12
2019-05-13T12:46:25.035Z,103336.16
2019-05-13T12:48:54.826Z,103340.58
2019-05-13T12:51:25.600Z,103330.75
2019-05-13T12:53:56.827Z,103330.09
2019-05-13T12:56:26.709Z,103329.05
2019-05-13T12:58:56.247Z,103313.86
2019-05-13T13:01:26.623Z,103323.03
2019-05-13T13:03:56.327Z,103321.83
2019-05-13T13:06:33.325Z,103333.75
2019-05-13T13:08:58.072Z,103319.27
2019-05-13T13:11:32.092Z,103312.54
2019-05-13T13:14:05.266Z,103311.42
2019-05-13T13:16:34.695Z,103324.78
2019-05-13T13:19:02.916Z,103315.51
2019-05-13T13:21:36.893Z,103314.50
2019-05-13T13:24:04.781Z,103306.21
2019-05-13T13:26:36.242Z,103295.14
2019-05-13T13:29:05.932Z,103294.48
2019-05-13T13:31:35.483Z,103304.23
2019-05-13T13:34:12.131Z,103298.55
2019-05-13T13:36:37.996Z,103290.11
2019-05-13T13:39:13.752Z,103277.98
2019-05-13T13:41:43.661Z,103290.55
2019-05-13T13:44:13.149Z,103288.03
2019-05-13T13:46:49.065Z,103289.43
2019-05-13T13:49:14.345Z,103288.03
2019-05-13T13:51:44.808Z,103288.21
2019-05-13T13:54:14.755Z,103280.10
2019-05-13T13:56:45.069Z,103269.76
2019-05-13T13:59:15.048Z,103274.59
2019-05-13T14:01:44.639Z,103270.46
2019-05-13T14:04:16.400Z,103272.02
2019-05-13T14:09:17.103Z,103274.60
2019-05-13T14:11:47.030Z,103266.33
2019-05-13T14:14:17.226Z,103262.54
2019-05-13T14:16:46.910Z,103266.33
2019-05-13T14:19:16.656Z,103261.51
2019-05-13T14:21:46.313Z,103259.09
2019-05-13T14:24:15.980Z,103260.13
2019-05-13T14:26:45.835Z,103259.43
2019-05-13T14:29:15.569Z,103250.47
2019-05-13T14:31:45.621Z,103253.91
2019-05-13T14:34:18.286Z,103250.99
2019-05-13T14:36:47.996Z,103248.59
2019-05-13T14:39:17.724Z,103240.66
2019-05-13T14:41:47.270Z,103241.63
2019-05-13T14:44:17.394Z,103238.41
2019-05-13T14:46:48.123Z,103239.02
2019-05-13T14:49:18.017Z,103233.89
2019-05-13T14:51:47.750Z,103239.97
2019-05-13T14:54:17.513Z,103239.20
2019-05-13T14:56:47.476Z,103231.95
2019-05-13T14:59:17.145Z,103229.70
2019-05-13T15:01:46.691Z,103237.16
2019-05-13T15:04:16.476Z,103227.34
2019-05-13T15:06:46.147Z,103227.09
2019-05-13T15:09:18.621Z,103221.67
2019-05-13T15:11:48.976Z,103216.48
2019-05-13T15:14:18.648Z,103220.31
2019-05-13T15:17:02.319Z,103229.00
2019-05-13T15:19:22.182Z,103227.13
2019-05-13T15:21:52.726Z,103228.76
2019-05-13T15:24:22.391Z,103219.66
2019-05-13T15:26:52.572Z,103226.17
2019-05-13T15:29:22.553Z,103219.56
2019-05-13T15:31:52.495Z,103221.17
2019-05-13T15:34:24.138Z,103213.13
2019-05-13T15:36:54.108Z,103210.05
2019-05-13T15:39:25.615Z,103220.77
2019-05-13T15:41:58.077Z,103221.10
2019-05-13T15:44:28.366Z,103214.70
2019-05-13T15:47:00.082Z,103223.50
2019-05-13T15:49:31.708Z,103215.60
2019-05-13T15:52:01.904Z,103211.81
2019-05-13T15:54:32.850Z,103204.73
2019-05-13T15:57:04.039Z,103207.77
2019-05-13T15:59:33.947Z,103206.20
2019-05-13T16:02:05.457Z,103209.61
2019-05-13T16:04:49.915Z,103210.52
2019-05-13T16:07:12.272Z,103210.45
2019-05-13T16:09:42.020Z,103211.73
2019-05-13T16:12:13.038Z,103205.92
2019-05-13T16:14:42.795Z,103207.03
2019-05-13T16:17:12.810Z,103203.88
2019-05-13T16:19:42.770Z,103196.63
2019-05-13T16:22:13.393Z,103204.34
2019-05-13T16:24:43.279Z,103196.39
2019-05-13T16:27:13.184Z,103195.31
2019-05-13T16:29:42.999Z,103186.27
2019-05-13T16:32:12.825Z,103198.32
2019-05-13T16:34:43.197Z,103197.30
2019-05-13T16:37:14.746Z,103201.39
2019-05-13T16:39:44.540Z,103212.45
2019-05-13T16:42:14.927Z,103205.87
2019-05-13T16:44:47.007Z,103200.56
2019-05-13T16:47:16.537Z,103205.50
2019-05-13T16:49:47.198Z,103205.50
2019-05-13T16:52:17.117Z,103200.81
2019-05-13T16:54:46.979Z,103205.09
2019-05-13T16:57:17.635Z,103203.30
2019-05-13T16:59:47.324Z,103205.14
2019-05-13T17:02:17.215Z,103203.87
2019-05-13T17:04:46.887Z,103201.27
2019-05-13T17:07:16.780Z,103207.98
2019-05-13T17:09:46.515Z,103210.86
2019-05-13T17:12:18.395Z,103202.50
2019-05-13T17:14:52.022Z,103198.88
2019-05-13T17:17:22.732Z,103201.27
2019-05-13T17:19:54.009Z,103198.53
2019-05-13T17:22:23.994Z,103199.16
2019-05-13T17:25:14.599Z,103208.58
2019-05-13T17:27:44.516Z,103206.08
2019-05-13T17:30:14.726Z,103212.94
2019-05-13T17:32:44.971Z,103206.60
2019-05-13T17:35:14.992Z,103216.11
2019-05-13T17:37:44.781Z,103212.58
2019-05-13T17:40:14.824Z,103205.50
2019-05-13T17:42:46.502Z,103216.07
2019-05-13T17:45:16.287Z,103211.11
2019-05-13T17:47:47.169Z,103216.79
2019-05-13T17:50:18.178Z,103217.91
2019-05-13T17:52:47.981Z,103214.52
2019-05-13T17:55:18.409Z,103220.36
2019-05-13T17:57:48.173Z,103218.23
2019-05-13T18:00:18.367Z,103213.17
2019-05-13T18:02:51.262Z,103222.88
2019-05-13T18:05:22.559Z,103218.02
2019-05-13T18:07:53.853Z,103218.02
2019-05-13T18:10:23.985Z,103214.42
2019-05-13T18:12:53.909Z,103214.37
2019-05-13T18:15:23.841Z,103213.16
2019-05-13T18:17:54.504Z,103214.45
2019-05-13T18:20:24.172Z,103215.01
2019-05-13T18:22:54.686Z,103214.73
2019-05-13T18:25:24.615Z,103221.29
2019-05-13T18:27:54.575Z,103222.59
2019-05-13T18:30:24.580Z,103223.31
2019-05-13T18:32:54.460Z,103223.18
2019-05-13T18:35:24.741Z,103220.13
2019-05-13T18:37:54.430Z,103222.75
2019-05-13T18:40:24.444Z,103217.82
2019-05-13T18:42:54.257Z,103229.54
2019-05-13T18:45:24.196Z,103230.07
2019-05-13T18:47:54.055Z,103234.30
2019-05-13T18:50:24.019Z,103223.81
2019-05-13T18:52:53.734Z,103235.03
2019-05-13T18:55:24.047Z,103232.77
2019-05-13T18:57:53.892Z,103229.44
2019-05-13T19:00:25.368Z,103235.23
2019-05-13T19:02:55.623Z,103233.80
2019-05-13T19:05:25.711Z,103244.61
2019-05-13T19:07:56.691Z,103242.09
2019-05-13T19:10:26.867Z,103252.14
2019-05-13T19:12:57.964Z,103249.59
2019-05-13T19:15:27.754Z,103243.11
2019-05-13T19:17:57.721Z,103247.34
2019-05-13T19:20:31.215Z,103246.97
2019-05-13T19:23:01.224Z,103249.80
2019-05-13T19:25:31.474Z,103256.01
2019-05-13T19:28:02.373Z,103249.30
2019-05-13T19:30:32.577Z,103261.61
2019-05-13T19:33:03.667Z,103264.93
2019-05-13T19:35:35.405Z,103261.08
2019-05-13T19:38:05.279Z,103267.95
2019-05-13T19:40:35.980Z,103263.63
2019-05-13T19:43:05.872Z,103275.89
2019-05-13T19:45:35.918Z,103271.42
2019-05-13T19:48:06.269Z,103277.16
2019-05-13T19:50:36.387Z,103281.26
2019-05-13T19:53:06.328Z,103279.75
2019-05-13T19:55:36.416Z,103281.88
2019-05-13T19:58:13.904Z,103275.22
2019-05-13T20:00:44.184Z,103273.98
2019-05-13T20:03:14.718Z,103279.66
2019-05-13T20:05:45.128Z,103282.64
2019-05-13T20:08:15.884Z,103289.47
2019-05-13T20:10:45.978Z,103284.23
2019-05-13T20:13:16.014Z,103288.36
2019-05-13T20:15:48.823Z,103295.78
2019-05-13T20:18:22.881Z,103294.55
2019-05-13T20:20:53.111Z,103296.03
2019-05-13T20:23:46.017Z,103290.22
2019-05-13T20:26:21.678Z,103291.45
2019-05-13T20:28:52.129Z,103294.50
2019-05-13T20:31:22.013Z,103296.87
2019-05-13T20:33:51.872Z,103290.09
2019-05-13T20:36:23.337Z,103288.98
2019-05-13T20:38:53.193Z,103290.09
2019-05-13T20:41:25.083Z,103287.86
2019-05-13T20:43:54.915Z,103278.95
2019-05-13T20:46:24.797Z,103283.13
2019-05-13T20:48:54.734Z,103277.28
2019-05-13T20:51:24.656Z,103278.63
2019-05-13T20:53:56.231Z,103276.41
2019-05-13T20:56:27.163Z,103276.55
2019-05-13T20:58:57.219Z,103281.02
2019-05-13T21:01:27.244Z,103286.70
2019-05-13T21:03:57.197Z,103288.56
2019-05-13T21:06:27.139Z,103284.84
2019-05-13T21:08:56.833Z,103287.07
2019-05-13T21:11:26.820Z,103292.52
2019-05-13T21:13:56.903Z,103298.09
2019-05-13T21:16:26.974Z,103298.56
2019-05-13T21:18:57.623Z,103298.05
2019-05-13T21:21:27.762Z,103292.86
2019-05-13T21:23:57.648Z,103287.03
2019-05-13T21:26:27.790Z,103289.83
2019-05-13T21:28:57.607Z,103296.98
2019-05-13T21:31:27.451Z,103295.77
2019-05-13T21:33:57.287Z,103290.66
2019-05-13T21:36:27.620Z,103286.09
2019-05-13T21:38:57.859Z,103287.70
2019-05-13T21:41:28.260Z,103291.30
2019-05-13T21:43:58.114Z,103287.11
2019-05-13T21:46:28.055Z,103285.44
2019-05-13T21:49:01.112Z,103279.86
2019-05-13T21:51:31.854Z,103282.67
2019-05-13T21:54:02.370Z,103284.88
2019-05-13T21:56:32.463Z,103287.48
2019-05-13T21:59:02.202Z,103285.66
2019-05-13T22:01:31.993Z,103280.89
2019-05-13T22:04:01.963Z,103282.02
2019-05-13T22:06:32.326Z,103271.61
2019-05-13T22:09:05.201Z,103277.28
2019-05-13T22:11:36.151Z,103275.25
2019-05-13T22:14:05.933Z,103279.71
2019-05-13T22:16:35.637Z,103272.36
2019-05-13T22:19:05.370Z,103269.49
2019-05-13T22:21:34.940Z,103274.44
2019-05-13T22:24:04.637Z,103271.34
2019-05-13T22:26:34.373Z,103274.57
2019-05-13T22:29:04.026Z,103272.27
2019-05-13T22:31:33.702Z,103270.83
2019-05-13T22:34:03.656Z,103266.53
2019-05-13T22:36:33.523Z,103265.74
2019-05-13T22:39:04.521Z,103264.53
2019-05-13T22:41:34.312Z,103264.76
2019-05-13T22:44:04.311Z,103264.90
2019-05-13T22:46:34.087Z,103264.76
2019-05-13T22:49:03.649Z,103263.52
2019-05-13T22:51:33.439Z,103266.72
2019-05-13T22:54:03.117Z,103260.84
2019-05-13T22:56:33.339Z,103264.00
2019-05-13T22:59:02.942Z,103267.19
2019-05-13T23:01:32.512Z,103270.93
2019-05-13T23:04:02.316Z,103269.34
2019-05-13T23:06:32.227Z,103268.21
2019-05-13T23:09:02.033Z,103262.81
2019-05-13T23:11:31.900Z,103258.68
2019-05-13T23:14:09.645Z,103260.91
2019-05-13T23:16:32.949Z,103264.58
2019-05-13T23:19:02.894Z,103271.72
2019-05-13T23:21:32.609Z,103261.30
2019-05-13T23:24:02.307Z,103260.32
2019-05-13T23:26:32.068Z,103265.27
2019-05-13T23:29:01.603Z,103259.02
2019-05-13T23:31:31.216Z,103257.02
2019-05-13T23:34:01.426Z,103259.40
2019-05-13T23:36:31.631Z,103257.50
2019-05-13T23:39:01.399Z,103254.14
2019-05-13T23:41:31.111Z,103265.86
2019-05-13T23:44:01.386Z,103265.42
2019-05-13T23:46:31.555Z,103261.08
2019-05-13T23:49:01.373Z,103262.65
2019-05-13T23:51:32.220Z,103267.64
2019-05-13T23:54:02.333Z,103264.77
2019-05-13T23:56:32.058Z,103263.74
2019-05-13T23:59:01.648Z,103253.97
